createdAt,value
2022-12-29T00:00:16.845Z,9.40
2022-12-29T00:02:44.826Z,9.40
2022-12-29T00:05:12.721Z,9.50
2022-12-29T00:07:41.847Z,9.50
2022-12-29T00:10:10.155Z,9.50
2022-12-29T00:12:55.582Z,9.50
2022-12-29T00:15:41.600Z,9.60
2022-12-29T00:18:10.099Z,9.60
2022-12-29T00:20:56.046Z,9.60
2022-12-29T00:23:43.056Z,9.60
2022-12-29T00:26:36.005Z,9.70
2022-12-29T00:29:21.686Z,9.70
2022-12-29T00:32:07.357Z,9.70
2022-12-29T00:34:52.612Z,9.70
2022-12-29T00:37:41.173Z,9.70
2022-12-29T00:40:28.595Z,9.80
2022-12-29T00:43:13.777Z,9.80
2022-12-29T00:45:42.750Z,9.80
2022-12-29T00:48:10.591Z,9.80
2022-12-29T00:50:37.450Z,9.80
2022-12-29T00:53:05.399Z,9.80
2022-12-29T00:55:38.630Z,9.80
2022-12-29T00:58:06.517Z,9.80
2022-12-29T01:00:35.147Z,9.80
2022-12-29T01:03:03.160Z,9.80
2022-12-29T01:05:31.181Z,9.90
2022-12-29T01:07:59.038Z,9.90
2022-12-29T01:10:25.898Z,9.90
2022-12-29T01:12:55.135Z,9.90
2022-12-29T01:15:23.029Z,10.00
2022-12-29T01:17:50.783Z,10.00
2022-12-29T01:20:18.814Z,10.00
2022-12-29T01:22:46.659Z,10.00
2022-12-29T01:25:14.496Z,10.10
2022-12-29T01:27:42.271Z,10.10
2022-12-29T01:30:12.470Z,10.10
2022-12-29T01:32:40.532Z,10.10
2022-12-29T01:35:09.041Z,10.20
2022-12-29T01:37:36.875Z,10.20
2022-12-29T01:40:05.187Z,10.10
2022-12-29T01:42:33.053Z,10.20
2022-12-29T01:45:03.785Z,10.20
2022-12-29T01:47:38.415Z,10.20
2022-12-29T01:50:11.538Z,10.30
2022-12-29T01:52:44.327Z,10.30
2022-12-29T01:55:13.844Z,10.30
2022-12-29T01:57:45.856Z,10.30
2022-12-29T02:00:15.509Z,10.30
2022-12-29T02:02:48.975Z,10.30
2022-12-29T02:05:24.839Z,10.30
2022-12-29T02:07:53.742Z,10.30
2022-12-29T02:10:23.121Z,10.30
2022-12-29T02:12:51.115Z,10.30
2022-12-29T02:15:19.633Z,10.30
2022-12-29T02:18:01.558Z,10.30
2022-12-29T02:21:05.084Z,10.30
2022-12-29T02:24:02.317Z,10.30
2022-12-29T02:26:51.807Z,10.30
2022-12-29T02:29:58.817Z,10.30
2022-12-29T02:32:34.325Z,10.30
2022-12-29T02:35:10.695Z,10.30
2022-12-29T02:37:45.235Z,10.40
2022-12-29T02:40:22.243Z,10.30
2022-12-29T02:42:53.845Z,10.40
2022-12-29T02:45:26.191Z,10.30
2022-12-29T02:48:02.541Z,10.40
2022-12-29T02:50:36.873Z,10.40
2022-12-29T02:53:08.046Z,10.40
2022-12-29T02:55:34.736Z,10.30
2022-12-29T02:58:18.537Z,10.40
2022-12-29T03:01:12.486Z,10.30
2022-12-29T03:03:55.834Z,10.40
2022-12-29T03:06:40.494Z,10.30
2022-12-29T03:09:19.608Z,10.30
2022-12-29T03:12:11.646Z,10.30
2022-12-29T03:15:06.477Z,10.30
2022-12-29T03:17:42.429Z,10.30
2022-12-29T03:20:18.398Z,10.30
2022-12-29T03:22:51.279Z,10.30
2022-12-29T03:25:24.386Z,10.30
2022-12-29T03:27:57.459Z,10.30
2022-12-29T03:30:26.593Z,10.30
2022-12-29T03:32:57.938Z,10.30
2022-12-29T03:35:29.401Z,10.30
2022-12-29T03:38:03.156Z,10.30
2022-12-29T03:40:33.309Z,10.30
2022-12-29T03:43:01.282Z,10.30
2022-12-29T03:45:29.126Z,10.30
2022-12-29T03:47:56.925Z,10.30
2022-12-29T03:50:24.767Z,10.30
2022-12-29T03:52:53.935Z,10.30
2022-12-29T03:55:21.756Z,10.30
2022-12-29T03:57:49.609Z,10.30
2022-12-29T04:00:17.677Z,10.30
2022-12-29T04:02:46.346Z,10.30
2022-12-29T04:05:14.420Z,10.30
2022-12-29T04:07:42.235Z,10.30
2022-12-29T04:10:11.593Z,10.30
2022-12-29T04:12:39.422Z,10.30
2022-12-29T04:15:08.344Z,10.30
2022-12-29T04:17:36.175Z,10.30
2022-12-29T04:20:18.052Z,10.30
2022-12-29T04:22:45.890Z,10.40
2022-12-29T04:25:15.248Z,10.30
2022-12-29T04:27:43.050Z,10.30
2022-12-29T04:30:12.188Z,10.40
2022-12-29T04:32:40.183Z,10.40
2022-12-29T04:35:08.666Z,10.40
2022-12-29T04:37:36.493Z,10.40
2022-12-29T04:40:04.567Z,10.40
2022-12-29T04:42:33.696Z,10.40
2022-12-29T04:45:01.507Z,10.40
2022-12-29T04:47:29.332Z,10.40
2022-12-29T04:49:57.099Z,10.40
2022-12-29T04:52:24.945Z,10.50
2022-12-29T04:54:52.779Z,10.50
2022-12-29T04:57:20.632Z,10.50
2022-12-29T04:59:49.786Z,10.50
2022-12-29T05:02:17.972Z,10.50
2022-12-29T05:04:46.942Z,10.50
2022-12-29T05:07:15.100Z,10.50
2022-12-29T05:09:43.049Z,10.50
2022-12-29T05:12:10.909Z,10.50
2022-12-29T05:14:38.767Z,10.60
2022-12-29T05:17:07.890Z,10.60
2022-12-29T05:19:35.661Z,10.60
2022-12-29T05:22:03.427Z,10.60
2022-12-29T05:24:31.230Z,10.60
2022-12-29T05:26:59.054Z,10.60
2022-12-29T05:29:26.874Z,10.60
2022-12-29T05:31:54.707Z,10.60
2022-12-29T05:34:23.962Z,10.60
2022-12-29T05:36:51.733Z,10.60
2022-12-29T05:39:19.785Z,10.60
2022-12-29T05:41:47.659Z,10.70
2022-12-29T05:44:15.593Z,10.70
2022-12-29T05:46:43.501Z,10.70
2022-12-29T05:49:11.425Z,10.60
2022-12-29T05:51:40.668Z,10.60
2022-12-29T05:54:08.695Z,10.70
2022-12-29T05:56:36.581Z,10.70
2022-12-29T05:59:04.412Z,10.70
2022-12-29T06:01:32.303Z,10.70
2022-12-29T06:04:00.985Z,10.70
2022-12-29T06:06:28.967Z,10.70
2022-12-29T06:08:58.367Z,10.70
2022-12-29T06:11:26.162Z,10.70
2022-12-29T06:13:54.037Z,10.70
2022-12-29T06:16:22.017Z,10.70
2022-12-29T06:18:49.975Z,10.70
2022-12-29T06:21:17.822Z,10.70
2022-12-29T06:23:45.674Z,10.80
2022-12-29T06:26:14.865Z,10.80
2022-12-29T06:28:42.670Z,10.80
2022-12-29T06:31:11.999Z,10.80
2022-12-29T06:33:39.933Z,10.80
2022-12-29T06:36:08.478Z,10.80
2022-12-29T06:38:36.614Z,10.80
2022-12-29T06:41:04.599Z,10.80
2022-12-29T06:43:34.808Z,10.80
2022-12-29T06:46:02.725Z,10.90
2022-12-29T06:48:30.628Z,10.80
2022-12-29T06:50:58.503Z,10.90
2022-12-29T06:53:26.268Z,10.90
2022-12-29T06:55:54.064Z,10.90
2022-12-29T06:58:21.901Z,10.90
2022-12-29T07:00:51.141Z,10.90
2022-12-29T07:03:19.083Z,11.00
2022-12-29T07:05:47.011Z,10.90
2022-12-29T07:08:15.042Z,10.90
2022-12-29T07:10:42.858Z,10.90
2022-12-29T07:13:10.720Z,11.00
2022-12-29T07:15:39.060Z,11.00
2022-12-29T07:18:08.256Z,11.00
2022-12-29T07:20:36.189Z,11.10
2022-12-29T07:23:04.429Z,11.10
2022-12-29T07:25:32.246Z,11.00
2022-12-29T07:28:00.122Z,11.00
2022-12-29T07:30:28.388Z,11.10
2022-12-29T07:32:56.298Z,11.10
2022-12-29T07:35:25.449Z,11.10
2022-12-29T07:37:53.390Z,11.10
2022-12-29T07:40:21.254Z,11.10
2022-12-29T07:42:49.127Z,11.10
2022-12-29T07:45:17.136Z,11.10
2022-12-29T07:47:44.930Z,11.10
2022-12-29T07:50:12.760Z,11.10
2022-12-29T07:52:41.888Z,11.20
2022-12-29T07:55:10.561Z,11.10
2022-12-29T07:57:38.446Z,11.10
2022-12-29T08:00:07.250Z,11.20
2022-12-29T08:02:35.293Z,11.20
2022-12-29T08:05:03.232Z,11.20
2022-12-29T08:07:31.042Z,11.20
2022-12-29T08:10:00.260Z,11.20
2022-12-29T08:12:28.119Z,11.20
2022-12-29T08:14:56.132Z,11.20
2022-12-29T08:17:23.931Z,11.20
2022-12-29T08:19:51.779Z,11.20
2022-12-29T08:22:19.678Z,11.20
2022-12-29T08:24:47.479Z,11.20
2022-12-29T08:27:20.786Z,11.30
2022-12-29T08:29:49.251Z,11.30
2022-12-29T08:32:17.728Z,11.30
2022-12-29T08:34:45.609Z,11.30
2022-12-29T08:37:13.414Z,11.30
2022-12-29T08:39:41.190Z,11.30
2022-12-29T08:42:09.083Z,11.30
2022-12-29T08:44:38.270Z,11.30
2022-12-29T08:47:06.209Z,11.30
2022-12-29T08:49:34.296Z,11.40
2022-12-29T08:52:02.084Z,11.40
2022-12-29T08:54:29.927Z,11.40
2022-12-29T08:56:57.844Z,11.40
2022-12-29T08:59:25.804Z,11.40
2022-12-29T09:01:55.098Z,11.40
2022-12-29T09:04:24.553Z,11.40
2022-12-29T09:06:52.620Z,11.40
2022-12-29T09:09:20.525Z,11.40
2022-12-29T09:11:48.573Z,11.40
2022-12-29T09:14:17.031Z,11.50
2022-12-29T09:17:02.201Z,11.50
2022-12-29T09:19:32.721Z,11.50
2022-12-29T09:22:00.590Z,11.50
2022-12-29T09:24:28.402Z,11.50
2022-12-29T09:26:56.294Z,11.50
2022-12-29T09:29:24.278Z,11.60
2022-12-29T09:31:52.189Z,11.60
2022-12-29T09:34:19.982Z,11.60
2022-12-29T09:36:49.147Z,11.60
2022-12-29T09:39:16.998Z,11.60
2022-12-29T09:41:53.011Z,11.70
2022-12-29T09:44:28.065Z,11.70
2022-12-29T09:46:58.610Z,11.70
2022-12-29T09:49:31.687Z,11.70
2022-12-29T09:52:06.587Z,11.70
2022-12-29T09:54:44.771Z,11.70
2022-12-29T09:57:23.749Z,11.70
2022-12-29T09:59:56.366Z,11.70
2022-12-29T10:02:34.415Z,11.70
2022-12-29T10:05:02.414Z,11.70
2022-12-29T10:07:40.419Z,11.70
2022-12-29T10:10:24.857Z,11.70
2022-12-29T10:13:22.799Z,11.70
2022-12-29T10:16:01.773Z,11.80
2022-12-29T10:19:03.941Z,11.70
2022-12-29T10:21:42.898Z,11.70
2022-12-29T10:24:14.400Z,11.70
2022-12-29T10:26:43.987Z,11.70
2022-12-29T10:29:18.080Z,11.70
2022-12-29T10:31:50.080Z,11.70
2022-12-29T10:34:23.416Z,11.70
2022-12-29T10:36:57.880Z,11.80
2022-12-29T10:39:32.697Z,11.80
2022-12-29T10:42:09.816Z,11.70
2022-12-29T10:44:37.983Z,11.70
2022-12-29T10:47:09.148Z,11.70
2022-12-29T10:49:39.204Z,11.70
2022-12-29T10:52:08.259Z,11.70
2022-12-29T10:54:44.404Z,11.70
2022-12-29T10:57:17.452Z,11.80
2022-12-29T10:59:45.368Z,11.70
2022-12-29T11:02:39.425Z,11.70
2022-12-29T11:05:12.920Z,11.70
2022-12-29T11:07:41.148Z,11.70
2022-12-29T11:10:21.540Z,11.60
2022-12-29T11:13:00.780Z,11.70
2022-12-29T11:15:29.245Z,11.70
2022-12-29T11:18:00.543Z,11.70
2022-12-29T11:20:35.799Z,11.70
2022-12-29T11:23:05.656Z,11.70
2022-12-29T11:25:34.913Z,11.70
2022-12-29T11:28:05.238Z,11.70
2022-12-29T11:30:34.142Z,11.80
2022-12-29T11:33:05.421Z,11.90
2022-12-29T11:35:36.909Z,11.80
2022-12-29T11:38:06.567Z,11.80
2022-12-29T11:40:40.953Z,11.90
2022-12-29T11:43:08.994Z,11.90
2022-12-29T11:45:38.107Z,11.90
2022-12-29T11:48:11.028Z,12.00
2022-12-29T11:50:42.080Z,12.00
2022-12-29T11:53:18.323Z,11.90
2022-12-29T11:55:55.851Z,12.00
2022-12-29T11:58:33.242Z,12.00
2022-12-29T12:01:07.038Z,12.00
2022-12-29T12:03:40.115Z,12.00
2022-12-29T12:06:13.723Z,12.00
2022-12-29T12:08:46.279Z,12.00
2022-12-29T12:11:18.607Z,12.00
2022-12-29T12:13:54.758Z,12.00
2022-12-29T12:16:26.361Z,12.10
2022-12-29T12:18:58.929Z,12.10
2022-12-29T12:21:32.594Z,12.10
2022-12-29T12:24:28.490Z,12.00
2022-12-29T12:27:05.851Z,12.10
2022-12-29T12:29:40.471Z,12.10
2022-12-29T12:32:16.162Z,12.10
2022-12-29T12:34:45.692Z,12.10
2022-12-29T12:37:52.280Z,12.10
2022-12-29T12:40:40.057Z,12.10
2022-12-29T12:43:32.833Z,12.20
2022-12-29T12:46:13.143Z,12.10
2022-12-29T12:49:01.422Z,12.20
2022-12-29T12:51:35.938Z,12.20
2022-12-29T12:54:17.069Z,12.20
2022-12-29T12:56:59.080Z,12.20
2022-12-29T12:59:43.454Z,12.20
2022-12-29T13:02:23.957Z,12.20
2022-12-29T13:05:27.115Z,12.20
2022-12-29T13:08:08.884Z,12.20
2022-12-29T13:10:48.425Z,12.20
2022-12-29T13:13:43.539Z,12.30
2022-12-29T13:16:20.031Z,12.20
2022-12-29T13:18:57.988Z,12.20
2022-12-29T13:21:40.035Z,12.20
2022-12-29T13:24:18.257Z,12.20
2022-12-29T13:26:51.990Z,12.20
2022-12-29T13:29:25.538Z,12.20
2022-12-29T13:32:03.935Z,12.20
2022-12-29T13:34:40.073Z,12.20
2022-12-29T13:37:13.699Z,12.20
2022-12-29T13:39:44.241Z,12.20
2022-12-29T13:42:14.013Z,12.30
2022-12-29T13:44:47.205Z,12.30
2022-12-29T13:47:26.198Z,12.30
2022-12-29T13:49:54.797Z,12.20
2022-12-29T13:52:31.118Z,12.20
2022-12-29T13:55:07.665Z,12.20
2022-12-29T13:57:47.510Z,12.20
2022-12-29T14:00:17.800Z,12.30
2022-12-29T14:03:06.572Z,12.30
2022-12-29T14:05:34.920Z,12.30
2022-12-29T14:08:05.709Z,12.30
2022-12-29T14:10:37.068Z,12.30
2022-12-29T14:13:08.555Z,12.30
2022-12-29T14:15:42.012Z,12.30
2022-12-29T14:18:20.195Z,12.30
2022-12-29T14:21:11.005Z,12.30
2022-12-29T14:23:41.013Z,12.30
2022-12-29T14:26:18.467Z,12.30
2022-12-29T14:28:48.113Z,12.30
2022-12-29T14:31:46.361Z,12.30
2022-12-29T14:34:29.868Z,12.30
2022-12-29T14:37:00.602Z,12.20
2022-12-29T14:39:37.353Z,12.20
2022-12-29T14:42:08.419Z,12.10
2022-12-29T14:44:47.681Z,12.10
2022-12-29T14:47:21.160Z,12.00
2022-12-29T14:49:50.903Z,12.00
2022-12-29T14:52:22.991Z,11.90
2022-12-29T14:54:53.546Z,11.90
2022-12-29T14:57:30.669Z,11.80
2022-12-29T15:00:03.515Z,11.80
2022-12-29T15:02:39.289Z,11.70
2022-12-29T15:05:25.150Z,11.70
2022-12-29T15:07:54.122Z,11.70
2022-12-29T15:10:23.855Z,11.60
2022-12-29T15:12:55.304Z,11.60
2022-12-29T15:15:25.109Z,11.60
2022-12-29T15:17:53.290Z,11.60
2022-12-29T15:20:28.192Z,11.60
2022-12-29T15:22:58.793Z,11.60
2022-12-29T15:25:27.502Z,11.60
2022-12-29T15:27:59.090Z,11.60
2022-12-29T15:30:26.948Z,11.60
2022-12-29T15:32:54.814Z,11.60
2022-12-29T15:35:32.880Z,11.60
2022-12-29T15:38:04.245Z,11.60
2022-12-29T15:40:33.775Z,11.50
2022-12-29T15:43:30.358Z,11.50
2022-12-29T15:45:58.369Z,11.50
2022-12-29T15:48:27.302Z,11.50
2022-12-29T15:50:56.560Z,11.50
2022-12-29T15:53:29.654Z,11.40
2022-12-29T15:56:03.499Z,11.40
2022-12-29T15:58:33.223Z,11.40
2022-12-29T16:01:02.861Z,11.40
2022-12-29T16:03:35.058Z,11.40
2022-12-29T16:06:12.267Z,11.30
2022-12-29T16:08:41.739Z,11.30
2022-12-29T16:11:22.728Z,11.30
2022-12-29T16:13:53.008Z,11.30
2022-12-29T16:16:23.258Z,11.20
2022-12-29T16:18:57.378Z,11.20
2022-12-29T16:21:30.636Z,11.20
2022-12-29T16:24:03.729Z,11.20
2022-12-29T16:26:31.715Z,11.20
2022-12-29T16:29:02.601Z,11.20
2022-12-29T16:31:36.790Z,11.10
2022-12-29T16:34:21.775Z,11.10
2022-12-29T16:36:57.796Z,11.10
2022-12-29T16:39:46.672Z,11.10
2022-12-29T16:42:38.108Z,11.00
2022-12-29T16:45:37.535Z,11.00
2022-12-29T16:48:19.056Z,11.00
2022-12-29T16:50:48.449Z,11.00
2022-12-29T16:53:25.692Z,11.00
2022-12-29T16:55:57.016Z,11.00
2022-12-29T16:58:28.761Z,10.90
2022-12-29T17:00:57.724Z,10.90
2022-12-29T17:03:33.420Z,10.90
2022-12-29T17:06:01.311Z,10.90
2022-12-29T17:08:30.639Z,10.90
2022-12-29T17:11:16.750Z,10.90
2022-12-29T17:13:44.528Z,10.90
2022-12-29T17:16:13.360Z,10.90
2022-12-29T17:18:41.247Z,10.80
2022-12-29T17:21:09.084Z,10.80
2022-12-29T17:23:38.211Z,10.80
2022-12-29T17:26:06.617Z,10.80
2022-12-29T17:28:34.591Z,10.80
2022-12-29T17:31:06.772Z,10.80
2022-12-29T17:33:38.235Z,10.80
2022-12-29T17:36:06.439Z,10.80
2022-12-29T17:38:38.657Z,10.80
2022-12-29T17:41:13.857Z,10.80
2022-12-29T17:43:41.876Z,10.70
2022-12-29T17:46:09.878Z,10.70
2022-12-29T17:48:37.761Z,10.70
2022-12-29T17:51:05.798Z,10.70
2022-12-29T17:53:33.562Z,10.70
2022-12-29T17:56:03.210Z,10.70
2022-12-29T17:58:32.533Z,10.70
2022-12-29T18:01:02.705Z,10.70
2022-12-29T18:03:32.871Z,10.70
2022-12-29T18:06:01.422Z,10.70
2022-12-29T18:08:29.632Z,10.60
2022-12-29T18:10:58.159Z,10.60
2022-12-29T18:13:39.290Z,10.60
2022-12-29T18:16:11.997Z,10.60
2022-12-29T18:18:39.885Z,10.60
2022-12-29T18:21:08.069Z,10.60
2022-12-29T18:23:35.971Z,10.60
2022-12-29T18:26:06.648Z,10.50
2022-12-29T18:28:35.807Z,10.60
2022-12-29T18:31:03.630Z,10.50
2022-12-29T18:33:31.642Z,10.50
2022-12-29T18:36:01.451Z,10.50
2022-12-29T18:38:30.306Z,10.50
2022-12-29T18:40:59.047Z,10.50
2022-12-29T18:43:27.185Z,10.50
2022-12-29T18:45:56.354Z,10.50
2022-12-29T18:48:24.184Z,10.50
2022-12-29T18:50:53.163Z,10.50
2022-12-29T18:53:23.910Z,10.50
2022-12-29T18:55:52.062Z,10.40
2022-12-29T18:58:20.141Z,10.40
2022-12-29T19:00:48.138Z,10.40
2022-12-29T19:03:19.718Z,10.40
2022-12-29T19:05:48.723Z,10.40
2022-12-29T19:08:16.844Z,10.40
2022-12-29T19:10:45.658Z,10.30
2022-12-29T19:13:17.060Z,10.30
2022-12-29T19:15:46.516Z,10.30
2022-12-29T19:21:09.218Z,10.30
2022-12-29T19:23:37.009Z,10.30
2022-12-29T19:26:04.989Z,10.30
2022-12-29T19:28:33.358Z,10.30
2022-12-29T19:31:03.530Z,10.30
2022-12-29T19:33:32.803Z,10.20
2022-12-29T19:36:02.904Z,10.20
2022-12-29T19:38:31.052Z,10.20
2022-12-29T19:40:58.891Z,10.20
2022-12-29T19:43:26.728Z,10.20
2022-12-29T19:45:54.580Z,10.20
2022-12-29T19:48:22.531Z,10.20
2022-12-29T19:50:51.797Z,10.20
2022-12-29T19:53:20.810Z,10.20
2022-12-29T19:55:48.693Z,10.10
2022-12-29T19:58:16.700Z,10.10
2022-12-29T20:00:44.972Z,10.10
2022-12-29T20:03:13.062Z,10.10
2022-12-29T20:05:41.252Z,10.10
2022-12-29T20:08:10.467Z,10.10
2022-12-29T20:10:38.321Z,10.10
2022-12-29T20:13:06.406Z,10.10
2022-12-29T20:15:34.303Z,10.10
2022-12-29T20:18:17.571Z,10.00
2022-12-29T20:20:45.450Z,10.00
2022-12-29T20:23:14.603Z,10.00
2022-12-29T20:25:53.693Z,10.00
2022-12-29T20:28:22.009Z,10.00
2022-12-29T20:30:56.904Z,10.00
2022-12-29T20:33:24.757Z,10.00
2022-12-29T20:35:52.714Z,10.00
2022-12-29T20:38:22.148Z,9.90
2022-12-29T20:40:49.944Z,10.00
2022-12-29T20:43:17.954Z,9.90
2022-12-29T20:45:46.065Z,9.90
2022-12-29T20:48:13.912Z,9.90
2022-12-29T20:50:41.786Z,9.90
2022-12-29T20:53:09.758Z,9.90
2022-12-29T20:55:41.186Z,9.90
2022-12-29T20:58:25.801Z,9.90
2022-12-29T21:00:55.668Z,9.90
2022-12-29T21:03:24.574Z,9.90
2022-12-29T21:05:53.668Z,9.90
2022-12-29T21:08:22.048Z,9.90
2022-12-29T21:10:51.979Z,9.90
2022-12-29T21:13:20.358Z,9.80
2022-12-29T21:15:50.249Z,9.80
2022-12-29T21:18:18.035Z,9.80
2022-12-29T21:20:45.843Z,9.80
2022-12-29T21:23:13.880Z,9.80
2022-12-29T21:25:45.010Z,9.80
2022-12-29T21:28:14.109Z,9.80
2022-12-29T21:30:42.642Z,9.70
2022-12-29T21:33:11.788Z,9.70
2022-12-29T21:35:39.997Z,9.70
2022-12-29T21:38:08.186Z,9.70
2022-12-29T21:40:37.295Z,9.70
2022-12-29T21:43:05.780Z,9.70
2022-12-29T21:45:34.599Z,9.70
2022-12-29T21:48:23.738Z,9.70
2022-12-29T21:51:20.511Z,9.70
2022-12-29T21:53:56.851Z,9.70
2022-12-29T21:56:24.724Z,9.70
2022-12-29T21:59:10.497Z,9.60
2022-12-29T22:01:57.380Z,9.60
2022-12-29T22:04:44.482Z,9.60
2022-12-29T22:07:31.301Z,9.60
2022-12-29T22:10:18.749Z,9.60
2022-12-29T22:13:03.017Z,9.60
2022-12-29T22:15:33.070Z,9.60
2022-12-29T22:18:02.590Z,9.60
2022-12-29T22:20:32.478Z,9.60
2022-12-29T22:23:00.415Z,9.60
2022-12-29T22:25:28.209Z,9.60
2022-12-29T22:27:59.600Z,9.50
2022-12-29T22:30:28.499Z,9.50
2022-12-29T22:32:58.265Z,9.60
2022-12-29T22:35:27.441Z,9.50
2022-12-29T22:37:55.521Z,9.50
2022-12-29T22:40:23.342Z,9.50
2022-12-29T22:42:51.187Z,9.50
2022-12-29T22:45:19.207Z,9.50
2022-12-29T22:47:47.090Z,9.50
2022-12-29T22:50:14.970Z,9.50
2022-12-29T22:52:44.355Z,9.50
2022-12-29T22:55:12.261Z,9.50
2022-12-29T22:57:40.081Z,9.50
2022-12-29T23:00:09.653Z,9.50
2022-12-29T23:02:37.680Z,9.50
2022-12-29T23:05:06.439Z,9.50
2022-12-29T23:07:35.754Z,9.40
2022-12-29T23:10:05.792Z,9.40
2022-12-29T23:12:33.685Z,9.40
2022-12-29T23:15:01.567Z,9.40
2022-12-29T23:17:29.948Z,9.40
2022-12-29T23:19:57.776Z,9.40
2022-12-29T23:22:25.591Z,9.40
2022-12-29T23:24:53.440Z,9.40
2022-12-29T23:27:22.609Z,9.40
2022-12-29T23:29:50.391Z,9.40
2022-12-29T23:32:18.189Z,9.40
2022-12-29T23:34:46.062Z,9.40
2022-12-29T23:37:14.076Z,9.40
2022-12-29T23:39:41.981Z,9.40
2022-12-29T23:42:11.285Z,9.40
2022-12-29T23:44:40.388Z,9.30
2022-12-29T23:47:08.248Z,9.40
2022-12-29T23:49:36.101Z,9.40
2022-12-29T23:52:03.936Z,9.30
2022-12-29T23:54:31.817Z,9.30
2022-12-29T23:56:59.717Z,9.30
2022-12-29T23:59:27.638Z,9.30
